Time;durP1;ratioP1;P1;durP2;ratioP2;P2;SDS_P1;SDS_P2;PMS_P1;PMS_P2;Temp;Humidity;BMP_temperature;BMP_pressure;BME280_temperature;BME280_humidity;BME280_pressure;Samples;Min_cycle;Max_cycle;Signal;HPM_P1;HPM_P2
2022/10/30 00:01:54;;;;;;;0.10;0.10;;;;;;;14.04;100.00;96882.09;4953509;28;20101;-77
2022/10/30 00:04:39;;;;;;;0.10;0.10;;;;;;;13.91;100.00;96869.91;4955892;28;20125;-76
2022/10/30 00:07:25;;;;;;;0.20;0.20;;;;;;;13.91;100.00;96871.78;4954708;28;20050;-76
2022/10/30 00:10:11;;;;;;;0.10;0.10;;;;;;;13.99;100.00;96860.53;4953313;28;20153;-77
2022/10/30 00:12:57;;;;;;;0.22;0.10;;;;;;;14.08;100.00;96867.03;4955453;28;20145;-76
2022/10/30 00:15:51;;;;;;;0.13;0.10;;;;;;;14.13;100.00;96867.06;4957213;28;20696;-76
2022/10/30 00:18:38;;;;;;;0.22;0.10;;;;;;;14.11;100.00;96873.78;4954291;28;20670;-76
2022/10/30 00:21:24;;;;;;;0.10;0.10;;;;;;;14.10;100.00;96867.59;4956033;28;20079;-76
2022/10/30 00:24:10;;;;;;;0.38;0.20;;;;;;;14.02;100.00;96865.41;4954133;28;20651;-77
2022/10/30 00:26:56;;;;;;;0.20;0.20;;;;;;;14.01;100.00;96871.88;4955465;28;20072;-76
2022/10/30 00:29:42;;;;;;;0.22;0.20;;;;;;;13.96;100.00;96874.50;4942730;28;20398;-77
2022/10/30 00:32:28;;;;;;;0.10;0.10;;;;;;;13.91;100.00;96866.41;4939151;28;20046;-75
2022/10/30 00:35:14;;;;;;;0.10;0.10;;;;;;;13.88;100.00;96870.44;4944030;28;20109;-78
2022/10/30 00:38:00;;;;;;;0.08;0.08;;;;;;;13.85;100.00;96872.81;4939445;28;20047;-75
2022/10/30 00:40:49;;;;;;;0.10;0.10;;;;;;;13.82;100.00;96863.38;4954394;28;20050;-77
2022/10/30 00:43:39;;;;;;;0.10;0.10;;;;;;;13.87;100.00;96865.31;4952448;28;20244;-75
2022/10/30 00:46:36;;;;;;;0.30;0.20;;;;;;;13.88;100.00;96866.94;4938370;28;20043;-77
2022/10/30 00:49:22;;;;;;;0.10;0.10;;;;;;;13.88;100.00;96858.84;4951548;28;20043;-76
2022/10/30 00:52:09;;;;;;;0.10;0.10;;;;;;;13.85;100.00;96857.50;4951557;28;20320;-74
2022/10/30 00:54:58;;;;;;;0.20;0.15;;;;;;;13.88;100.00;96848.91;4952550;28;20521;-76
2022/10/30 00:57:46;;;;;;;0.10;0.10;;;;;;;13.89;100.00;96844.34;4953491;28;20054;-76
2022/10/30 01:00:34;;;;;;;0.10;0.10;;;;;;;13.98;100.00;96842.78;4943177;28;20632;-77
2022/10/30 01:03:23;;;;;;;0.20;0.20;;;;;;;13.83;100.00;96837.28;4940200;28;20093;-75
2022/10/30 01:06:11;;;;;;;0.10;0.10;;;;;;;13.86;100.00;96852.94;4954517;28;20047;-76
2022/10/30 01:08:57;;;;;;;0.10;0.10;;;;;;;13.94;100.00;96847.06;4932999;28;20035;-75
2022/10/30 01:11:43;;;;;;;0.10;0.10;;;;;;;13.83;100.00;96856.13;4952610;28;20348;-77
2022/10/30 01:14:30;;;;;;;0.15;0.10;;;;;;;13.70;100.00;96845.84;4953983;28;20133;-77
2022/10/30 01:17:35;;;;;;;0.10;0.10;;;;;;;13.59;100.00;96845.75;4952595;28;20039;-76
2022/10/30 01:20:58;;;;;;;0.10;0.10;;;;;;;13.60;100.00;96850.06;4939612;28;20517;-76
2022/10/30 01:24:05;;;;;;;0.20;0.20;;;;;;;13.58;100.00;96846.81;4951478;28;20145;-77
2022/10/30 01:27:21;;;;;;;0.20;0.10;;;;;;;13.59;100.00;96850.31;4948641;28;20145;-77
2022/10/30 01:30:30;;;;;;;0.20;0.20;;;;;;;13.65;100.00;96865.44;4953284;28;20062;-76
2022/10/30 01:33:29;;;;;;;0.20;0.20;;;;;;;13.62;100.00;96858.69;4939934;28;20042;-75
2022/10/30 01:36:26;;;;;;;0.10;0.10;;;;;;;13.62;100.00;96855.19;4938389;28;20392;-76
2022/10/30 01:39:17;;;;;;;0.10;0.10;;;;;;;13.61;100.00;96851.66;4952481;28;20050;-75
2022/10/30 01:42:29;;;;;;;0.10;0.10;;;;;;;13.78;100.00;96851.53;4939058;28;20038;-76
2022/10/30 01:45:40;;;;;;;0.10;0.10;;;;;;;13.90;100.00;96852.13;4948960;28;20046;-76
2022/10/30 01:48:45;;;;;;;0.15;0.15;;;;;;;13.89;100.00;96850.53;4950887;28;20055;-76
2022/10/30 01:51:46;;;;;;;0.10;0.10;;;;;;;13.87;100.00;96841.91;4955454;28;20105;-77
2022/10/30 01:54:45;;;;;;;0.10;0.10;;;;;;;13.86;100.00;96856.44;4937690;28;20053;-77
2022/10/30 01:58:02;;;;;;;0.20;0.10;;;;;;;13.84;100.00;96855.06;4940306;28;20129;-76
2022/10/30 02:00:54;;;;;;;0.10;0.10;;;;;;;13.82;100.00;96860.69;4951494;28;20051;-75
2022/10/30 02:03:43;;;;;;;0.10;0.10;;;;;;;13.77;100.00;96860.66;4951701;28;20545;-74
2022/10/30 02:06:29;;;;;;;0.10;0.10;;;;;;;13.76;100.00;96863.59;4953621;28;20566;-75
2022/10/30 02:09:16;;;;;;;0.10;0.10;;;;;;;13.67;100.00;96860.59;4935919;28;20042;-75
2022/10/30 02:12:08;;;;;;;0.10;0.10;;;;;;;13.65;100.00;96850.09;4931886;28;20099;-74
2022/10/30 02:14:57;;;;;;;0.10;0.10;;;;;;;13.75;100.00;96857.41;4945660;28;20534;-75
2022/10/30 02:17:43;;;;;;;0.17;0.17;;;;;;;13.86;100.00;96847.56;4948060;28;20436;-75
2022/10/30 02:20:32;;;;;;;0.10;0.10;;;;;;;13.87;100.00;96844.59;4939615;28;20046;-75
2022/10/30 02:23:19;;;;;;;0.10;0.10;;;;;;;13.87;100.00;96841.91;4955488;28;20280;-74
2022/10/30 02:26:05;;;;;;;0.10;0.10;;;;;;;13.87;100.00;96838.41;4935466;28;20251;-75
2022/10/30 02:28:51;;;;;;;0.10;0.10;;;;;;;13.88;100.00;96842.72;4952100;28;20594;-76
2022/10/30 02:31:37;;;;;;;0.10;0.10;;;;;;;13.83;100.00;96829.22;4951515;28;20054;-76
2022/10/30 02:34:23;;;;;;;0.10;0.10;;;;;;;13.81;100.00;96832.19;4936970;28;20043;-75
2022/10/30 02:37:09;;;;;;;0.10;0.10;;;;;;;13.80;100.00;96843.22;4954186;28;20462;-76
2022/10/30 02:39:57;;;;;;;0.20;0.10;;;;;;;13.73;100.00;96832.66;4937072;28;20078;-76
2022/10/30 02:42:43;;;;;;;0.10;0.10;;;;;;;13.72;100.00;96832.94;4935651;28;20057;-76
2022/10/30 02:45:29;;;;;;;0.10;0.10;;;;;;;13.68;100.00;96816.50;4937526;28;20054;-76
2022/10/30 02:48:15;;;;;;;0.10;0.10;;;;;;;13.59;100.00;96816.16;4940171;28;20043;-75
2022/10/30 02:51:02;;;;;;;0.10;0.10;;;;;;;13.63;100.00;96822.66;4939366;28;20515;-77
2022/10/30 02:53:49;;;;;;;0.03;0.03;;;;;;;13.73;100.00;96816.53;4940285;28;20050;-76
2022/10/30 02:56:34;;;;;;;0.10;0.10;;;;;;;13.74;100.00;96809.28;4938935;28;20704;-76
2022/10/30 02:59:20;;;;;;;0.10;0.10;;;;;;;13.68;100.00;96810.31;4948777;28;20046;-76
2022/10/30 03:02:08;;;;;;;0.15;0.10;;;;;;;13.69;100.00;96806.53;4938158;28;20096;-77
2022/10/30 03:04:54;;;;;;;0.20;0.10;;;;;;;13.71;100.00;96805.22;4953451;28;20043;-77
2022/10/30 03:07:40;;;;;;;0.20;0.17;;;;;;;13.71;100.00;96812.50;4938789;28;20061;-77
2022/10/30 03:10:27;;;;;;;0.10;0.10;;;;;;;13.64;100.00;96810.84;4954563;28;20502;-76
2022/10/30 03:13:13;;;;;;;0.17;0.10;;;;;;;13.56;100.00;96813.19;4951037;28;20325;-76
2022/10/30 03:16:28;;;;;;;0.10;0.10;;;;;;;13.46;100.00;96815.78;4951940;28;20131;-77
2022/10/30 03:19:14;;;;;;;0.10;0.10;;;;;;;13.47;100.00;96814.75;4937316;28;20578;-77
2022/10/30 03:22:00;;;;;;;0.10;0.10;;;;;;;13.51;100.00;96816.66;4939557;28;20050;-77
2022/10/30 03:24:46;;;;;;;0.10;0.10;;;;;;;13.53;100.00;96814.50;4938325;28;20129;-78
2022/10/30 03:27:32;;;;;;;0.10;0.10;;;;;;;13.55;100.00;96817.78;4939923;28;20062;-77
2022/10/30 03:30:17;;;;;;;0.10;0.10;;;;;;;13.52;100.00;96817.47;4949366;28;20736;-77
2022/10/30 03:33:03;;;;;;;0.10;0.10;;;;;;;13.50;100.00;96820.41;4928837;28;20274;-74
2022/10/30 03:35:50;;;;;;;0.20;0.20;;;;;;;13.51;100.00;96815.84;4950725;28;20073;-74
2022/10/30 03:38:36;;;;;;;0.15;0.13;;;;;;;13.51;100.00;96821.22;4938757;28;20046;-74
2022/10/30 03:41:22;;;;;;;0.10;0.10;;;;;;;13.45;100.00;96816.88;4936476;28;20035;-74
2022/10/30 03:44:08;;;;;;;0.10;0.10;;;;;;;13.37;100.00;96813.59;4952125;28;20884;-74
2022/10/30 03:46:54;;;;;;;0.30;0.20;;;;;;;13.28;100.00;96819.69;4949735;28;20051;-75
2022/10/30 03:49:45;;;;;;;0.30;0.20;;;;;;;13.13;100.00;96822.22;4936698;28;20101;-76
2022/10/30 03:52:36;;;;;;;0.20;0.17;;;;;;;13.02;100.00;96819.47;4949414;28;20530;-76
2022/10/30 03:55:23;;;;;;;0.15;0.15;;;;;;;12.93;100.00;96810.25;4947647;28;20046;-75
2022/10/30 03:58:09;;;;;;;0.10;0.10;;;;;;;12.85;100.00;96826.81;4935664;28;20263;-75
2022/10/30 04:01:03;;;;;;;0.10;0.10;;;;;;;12.73;100.00;96831.53;4938017;28;20054;-75
2022/10/30 04:03:52;;;;;;;0.10;0.10;;;;;;;12.64;100.00;96828.47;4924260;28;20495;-75
2022/10/30 04:06:38;;;;;;;0.10;0.10;;;;;;;12.55;100.00;96824.63;4938522;28;20352;-75
2022/10/30 04:09:26;;;;;;;0.10;0.10;;;;;;;12.60;100.00;96819.28;4938965;28;20671;-76
2022/10/30 04:12:12;;;;;;;0.10;0.10;;;;;;;12.73;100.00;96824.28;4938629;28;20043;-74
2022/10/30 04:14:58;;;;;;;0.10;0.10;;;;;;;12.75;100.00;96822.13;4933991;28;20046;-76
2022/10/30 04:17:49;;;;;;;0.20;0.20;;;;;;;12.72;100.00;96819.16;4949562;28;20061;-76
2022/10/30 04:20:36;;;;;;;0.25;0.20;;;;;;;12.73;100.00;96824.28;4943159;28;20129;-76
2022/10/30 04:23:22;;;;;;;0.10;0.10;;;;;;;12.73;100.00;96820.78;4939032;28;20403;-75
2022/10/30 04:26:08;;;;;;;0.20;0.20;;;;;;;12.71;100.00;96818.34;4940621;28;20054;-75
2022/10/30 04:28:56;;;;;;;0.10;0.10;;;;;;;12.63;100.00;96821.50;4937407;28;20035;-75
2022/10/30 04:31:42;;;;;;;0.10;0.10;;;;;;;12.60;100.00;96827.34;4939797;28;20078;-76
2022/10/30 04:34:28;;;;;;;0.10;0.10;;;;;;;12.55;100.00;96819.25;4940023;28;20109;-74
2022/10/30 04:37:14;;;;;;;0.10;0.10;;;;;;;12.60;100.00;96831.91;4950835;28;20042;-77
2022/10/30 04:40:02;;;;;;;0.10;0.10;;;;;;;12.61;100.00;96823.63;4939117;28;20154;-77
2022/10/30 04:42:56;;;;;;;0.20;0.20;;;;;;;12.68;100.00;96818.84;4937280;28;20078;-75
2022/10/30 04:45:42;;;;;;;0.15;0.10;;;;;;;12.69;100.00;96822.38;4955049;28;20054;-77
2022/10/30 04:48:28;;;;;;;0.10;0.10;;;;;;;12.62;100.00;96819.88;4957613;28;20050;-75
2022/10/30 04:51:14;;;;;;;0.10;0.10;;;;;;;12.55;100.00;96813.88;4951524;28;20353;-76
2022/10/30 04:54:00;;;;;;;0.10;0.10;;;;;;;12.59;100.00;96819.56;4931621;28;20097;-76
2022/10/30 04:56:49;;;;;;;0.20;0.20;;;;;;;12.54;100.00;96818.44;4942216;28;20081;-76
2022/10/30 04:59:35;;;;;;;0.10;0.10;;;;;;;12.45;100.00;96819.13;4942978;28;20498;-77
2022/10/30 05:02:21;;;;;;;0.10;0.10;;;;;;;12.30;100.00;96810.94;4937914;28;20517;-76
2022/10/30 05:05:07;;;;;;;0.10;0.10;;;;;;;12.05;100.00;96812.22;4943460;28;20035;-76
2022/10/30 05:07:53;;;;;;;0.20;0.20;;;;;;;12.07;100.00;96812.00;4921231;28;20056;-76
2022/10/30 05:10:43;;;;;;;0.10;0.10;;;;;;;11.99;100.00;96811.34;4925786;29;20040;-77
2022/10/30 05:13:29;;;;;;;0.10;0.10;;;;;;;11.99;100.00;96822.09;4922529;29;20511;-76
2022/10/30 05:16:16;;;;;;;0.10;0.10;;;;;;;11.98;100.00;96820.47;4921579;28;20147;-76
2022/10/30 05:19:02;;;;;;;0.10;0.10;;;;;;;11.99;100.00;96818.59;4925360;28;20141;-76
2022/10/30 05:21:48;;;;;;;0.10;0.10;;;;;;;11.97;100.00;96813.47;4922051;28;20043;-78
2022/10/30 05:24:34;;;;;;;0.10;0.10;;;;;;;11.96;100.00;96825.25;4921286;28;20147;-76
2022/10/30 05:27:20;;;;;;;0.17;0.17;;;;;;;11.69;100.00;96824.31;4928929;28;20407;-77
2022/10/30 05:30:07;;;;;;;0.10;0.10;;;;;;;11.63;100.00;96825.28;4933881;28;20493;-76
2022/10/30 05:33:00;;;;;;;0.10;0.10;;;;;;;11.58;100.00;96819.84;4921432;28;20158;-76
2022/10/30 05:35:47;;;;;;;0.10;0.10;;;;;;;11.48;100.00;96811.66;4935859;28;20039;-75
2022/10/30 05:38:33;;;;;;;0.10;0.10;;;;;;;11.44;100.00;96803.31;4935828;28;20043;-77
2022/10/30 05:41:19;;;;;;;0.10;0.10;;;;;;;11.42;100.00;96800.84;4924523;28;20494;-76
2022/10/30 05:44:05;;;;;;;0.10;0.10;;;;;;;11.45;100.00;96796.91;4928560;28;20142;-77
2022/10/30 05:46:52;;;;;;;0.10;0.10;;;;;;;11.44;100.00;96797.97;4921505;28;20050;-77
2022/10/30 05:49:44;;;;;;;0.10;0.10;;;;;;;11.44;100.00;96796.09;4931400;28;20035;-77
2022/10/30 05:52:35;;;;;;;0.17;0.10;;;;;;;11.41;100.00;96799.25;4918787;28;20182;-77
2022/10/30 05:55:22;;;;;;;0.10;0.10;;;;;;;11.41;100.00;96793.06;4929023;28;20039;-76
2022/10/30 05:58:24;;;;;;;0.10;0.10;;;;;;;11.41;100.00;96791.22;4916498;29;20119;-77
2022/10/30 06:01:13;;;;;;;0.10;0.10;;;;;;;11.43;100.00;96790.94;4924534;28;20229;-76
2022/10/30 06:04:03;;;;;;;0.13;0.13;;;;;;;11.44;100.00;96797.97;4925119;28;20035;-76
2022/10/30 06:06:49;;;;;;;0.20;0.20;;;;;;;11.40;100.00;96799.50;4933254;28;20118;-76
2022/10/30 06:09:34;;;;;;;0.10;0.10;;;;;;;11.44;100.00;96798.78;4935390;28;20039;-77
2022/10/30 06:12:33;;;;;;;0.10;0.10;;;;;;;11.42;100.00;96803.53;4945871;28;20047;-78
2022/10/30 06:15:31;;;;;;;0.10;0.10;;;;;;;11.52;100.00;96813.63;4941446;28;20050;-77
2022/10/30 06:18:17;;;;;;;0.10;0.10;;;;;;;11.57;100.00;96816.34;4931068;28;20082;-76
2022/10/30 06:21:07;;;;;;;0.10;0.10;;;;;;;11.53;100.00;96809.88;4943199;28;20042;-76
2022/10/30 06:24:03;;;;;;;0.10;0.10;;;;;;;11.50;100.00;96812.22;4942276;28;20446;-77
2022/10/30 06:26:58;;;;;;;0.05;0.05;;;;;;;11.53;100.00;96812.56;4953614;28;20518;-77
2022/10/30 06:29:44;;;;;;;0.10;0.10;;;;;;;11.55;100.00;96809.63;4946119;28;20251;-77
2022/10/30 06:32:30;;;;;;;0.10;0.10;;;;;;;11.57;100.00;96810.19;4938805;28;20074;-77
2022/10/30 06:35:16;;;;;;;0.10;0.10;;;;;;;11.55;100.00;96813.13;4940854;28;20496;-76
2022/10/30 06:38:03;;;;;;;0.10;0.10;;;;;;;11.55;100.00;96809.63;4951367;28;20039;-77
2022/10/30 06:40:50;;;;;;;0.10;0.10;;;;;;;11.53;100.00;96811.75;4944985;28;20051;-77
2022/10/30 06:43:56;;;;;;;0.17;0.10;;;;;;;11.47;100.00;96816.22;4955773;28;20043;-77
2022/10/30 06:46:43;;;;;;;0.10;0.10;;;;;;;11.54;100.00;96808.00;4949748;28;20464;-77
2022/10/30 06:49:29;;;;;;;0.10;0.10;;;;;;;11.53;100.00;96801.03;4941193;28;20491;-77
2022/10/30 06:52:16;;;;;;;0.10;0.10;;;;;;;11.60;100.00;96810.53;4953681;28;20667;-77
2022/10/30 06:55:03;;;;;;;0.10;0.10;;;;;;;11.61;100.00;96801.41;4945615;28;20046;-78
2022/10/30 06:58:03;;;;;;;0.10;0.10;;;;;;;11.57;100.00;96797.59;4940532;28;20125;-77
2022/10/30 07:01:00;;;;;;;0.10;0.10;;;;;;;11.63;100.00;96801.16;4938957;28;20126;-77
2022/10/30 07:04:15;;;;;;;0.10;0.10;;;;;;;11.74;100.00;96800.25;4940622;28;20753;-76
2022/10/30 07:07:03;;;;;;;0.10;0.10;;;;;;;11.69;100.00;96802.88;4928210;28;20171;-75
2022/10/30 07:09:49;;;;;;;0.10;0.10;;;;;;;11.58;100.00;96796.53;4917894;28;20117;-76
2022/10/30 07:12:39;;;;;;;0.10;0.10;;;;;;;11.54;100.00;96795.41;4578736;28;9999921;-76
2022/10/30 07:15:37;;;;;;;0.10;0.10;;;;;;;11.55;100.00;96802.41;4930487;28;20089;-75
2022/10/30 07:18:34;;;;;;;0.17;0.10;;;;;;;11.57;100.00;96802.97;4920692;28;20066;-75
2022/10/30 07:21:21;;;;;;;0.20;0.20;;;;;;;11.63;100.00;96801.16;4915849;28;20141;-77
2022/10/30 07:24:07;;;;;;;0.15;0.10;;;;;;;11.70;100.00;96807.16;4928127;28;20200;-77
2022/10/30 07:27:01;;;;;;;0.20;0.20;;;;;;;11.82;100.00;96807.88;4932940;28;20082;-77
2022/10/30 07:29:52;;;;;;;0.10;0.10;;;;;;;11.93;100.00;96812.34;4918638;28;20219;-76
2022/10/30 07:32:44;;;;;;;0.10;0.10;;;;;;;12.04;100.00;96817.84;4920025;28;20039;-77
2022/10/30 07:35:48;;;;;;;0.10;0.10;;;;;;;12.15;100.00;96814.22;4925017;28;20055;-77
2022/10/30 07:39:10;;;;;;;0.30;0.20;;;;;;;12.25;100.00;96808.97;4928027;28;20352;-77
2022/10/30 07:42:18;;;;;;;0.13;0.13;;;;;;;12.26;100.00;96813.28;4932847;28;20051;-76
2022/10/30 07:45:23;;;;;;;0.10;0.10;;;;;;;12.38;100.00;96810.47;4932554;28;20048;-76
2022/10/30 07:48:35;;;;;;;0.10;0.10;;;;;;;12.53;100.00;96816.03;4930336;28;20050;-76
2022/10/30 07:51:26;;;;;;;0.22;0.10;;;;;;;12.59;100.00;96811.50;4917426;28;20087;-77
2022/10/30 07:54:12;;;;;;;0.13;0.13;;;;;;;12.67;100.00;96817.22;4914182;28;20051;-78
2022/10/30 07:56:57;;;;;;;0.20;0.17;;;;;;;12.71;100.00;96820.22;4921735;28;20109;-77
2022/10/30 08:00:13;;;;;;;0.10;0.10;;;;;;;12.77;100.00;96828.09;4902061;28;20047;-77
2022/10/30 08:02:59;;;;;;;0.10;0.10;;;;;;;12.83;100.00;96826.25;4932183;28;20074;-76
2022/10/30 08:06:14;;;;;;;0.10;0.10;;;;;;;12.92;100.00;96826.59;4938748;28;20062;-77
2022/10/30 08:09:00;;;;;;;0.22;0.10;;;;;;;12.99;100.00;96822.63;4944636;28;20149;-77
2022/10/30 08:11:47;;;;;;;0.10;0.10;;;;;;;13.09;100.00;96827.31;4943081;28;20574;-76
2022/10/30 08:14:33;;;;;;;0.20;0.20;;;;;;;13.20;100.00;96834.41;4942029;28;20047;-77
2022/10/30 08:17:20;;;;;;;0.03;0.03;;;;;;;13.33;100.00;96835.88;4939481;28;20606;-76
2022/10/30 08:20:07;;;;;;;0.10;0.10;;;;;;;13.43;100.00;96838.63;4939379;28;20057;-76
2022/10/30 08:22:55;;;;;;;0.22;0.17;;;;;;;13.56;100.00;96842.78;4942352;28;20051;-76
2022/10/30 08:25:44;;;;;;;;;;;;;;;13.68;100.00;96832.63;4945210;28;20066;-78
2022/10/30 08:28:31;;;;;;;0.10;0.10;;;;;;;13.81;100.00;96831.38;4945054;28;20498;-78
2022/10/30 08:31:17;;;;;;;0.10;0.10;;;;;;;13.91;100.00;96828.72;4944462;28;20100;-78
2022/10/30 08:34:33;;;;;;;0.10;0.10;;;;;;;14.06;100.00;96825.31;4949742;28;20080;-77
2022/10/30 08:37:23;;;;;;;0.20;0.20;;;;;;;14.16;100.00;96828.88;4948327;28;20521;-76
2022/10/30 08:40:10;;;;;;;0.10;0.10;;;;;;;14.27;100.00;96818.97;4940179;28;20047;-76
2022/10/30 08:43:02;;;;;;;0.05;0.05;;;;;;;14.39;100.00;96826.81;4938422;28;20057;-75
2022/10/30 08:45:48;;;;;;;0.20;0.17;;;;;;;14.50;100.00;96825.81;4942748;28;20098;-76
2022/10/30 08:48:38;;;;;;;0.10;0.10;;;;;;;14.71;100.00;96830.19;4938765;28;20147;-77
2022/10/30 08:51:24;;;;;;;0.10;0.10;;;;;;;14.89;100.00;96830.78;4938419;28;20039;-77
2022/10/30 08:54:10;;;;;;;0.10;0.10;;;;;;;14.98;100.00;96829.16;4926833;28;20043;-77
2022/10/30 08:56:56;;;;;;;0.10;0.10;;;;;;;15.16;100.00;96827.81;4955153;28;20515;-78
2022/10/30 08:59:43;;;;;;;0.10;0.10;;;;;;;15.25;100.00;96820.81;4955509;28;20163;-78
2022/10/30 09:02:44;;;;;;;0.10;0.10;;;;;;;15.43;100.00;96816.78;4954994;28;20561;-78
2022/10/30 09:05:48;;;;;;;0.10;0.10;;;;;;;15.58;100.00;96817.59;4957891;28;20041;-77
2022/10/30 09:09:00;;;;;;;0.10;0.10;;;;;;;15.72;100.00;96817.88;4957829;28;20039;-78
2022/10/30 09:12:08;;;;;;;0.10;0.10;;;;;;;15.95;100.00;96821.03;4942336;28;20047;-77
2022/10/30 09:15:03;;;;;;;0.10;0.10;;;;;;;16.16;100.00;96828.00;4942171;28;20243;-77
2022/10/30 09:18:00;;;;;;;0.10;0.10;;;;;;;16.37;100.00;96829.56;4940469;28;20077;-78
2022/10/30 09:20:49;;;;;;;0.10;0.10;;;;;;;16.57;100.00;96828.66;4953338;28;20039;-76
2022/10/30 09:23:35;;;;;;;0.20;0.20;;;;;;;16.89;100.00;96825.56;4954963;28;20621;-77
2022/10/30 09:26:40;;;;;;;0.20;0.20;;;;;;;17.17;100.00;96834.03;4924310;28;20065;-77
2022/10/30 09:29:51;;;;;;;0.20;0.20;;;;;;;18.03;100.00;96825.16;4951710;28;20039;-77
2022/10/30 09:32:43;;;;;;;0.20;0.20;;;;;;;18.85;100.00;96821.50;4939056;28;20051;-77
2022/10/30 09:35:35;;;;;;;0.20;0.20;;;;;;;20.14;100.00;96819.94;4942315;28;20038;-76
2022/10/30 09:38:24;;;;;;;0.20;0.20;;;;;;;20.54;100.00;96810.22;4938803;28;20039;-76
2022/10/30 09:41:12;;;;;;;0.13;0.13;;;;;;;21.55;98.26;96817.19;4940683;28;20042;-77
2022/10/30 09:44:13;;;;;;;0.20;0.20;;;;;;;21.73;96.34;96812.66;4939177;28;20054;-77
2022/10/30 09:47:05;;;;;;;0.20;0.20;;;;;;;22.48;92.01;96809.00;4954966;28;20499;-76
2022/10/30 09:50:12;;;;;;;0.20;0.20;;;;;;;23.11;88.47;96806.88;4956057;28;20506;-76
2022/10/30 09:53:20;;;;;;;0.10;0.10;;;;;;;24.07;82.32;96808.41;4938143;28;20258;-76
2022/10/30 09:56:16;;;;;;;0.15;0.15;;;;;;;23.37;82.08;96812.38;4952415;28;20073;-77
2022/10/30 09:59:27;;;;;;;0.20;0.20;;;;;;;22.92;86.59;96818.13;4948663;28;20047;-77
2022/10/30 10:02:29;;;;;;;0.10;0.10;;;;;;;23.53;83.45;96799.81;4937110;28;20412;-77
2022/10/30 10:05:27;;;;;;;0.10;0.10;;;;;;;24.03;79.59;96801.97;4953398;28;20535;-77
2022/10/30 10:08:43;;;;;;;0.10;0.10;;;;;;;24.43;75.57;96798.94;4951867;28;20573;-77
2022/10/30 10:12:08;;;;;;;0.10;0.10;;;;;;;23.65;78.89;96812.03;4955669;28;20392;-77
2022/10/30 10:14:55;;;;;;;0.20;0.20;;;;;;;23.56;82.75;96815.53;4953986;28;20162;-77
2022/10/30 10:17:44;;;;;;;0.20;0.10;;;;;;;24.09;76.85;96810.78;4953877;28;20125;-77
2022/10/30 10:20:42;;;;;;;0.20;0.20;;;;;;;25.13;70.94;96810.28;4958161;28;20049;-77
2022/10/30 10:23:37;;;;;;;0.10;0.10;;;;;;;25.58;69.91;96812.31;4954035;28;20054;-78
2022/10/30 10:26:41;;;;;;;0.10;0.10;;;;;;;24.86;73.27;96806.91;4957691;28;20392;-78
2022/10/30 10:29:45;;;;;;;0.10;0.10;;;;;;;25.46;78.70;96805.66;4955070;28;20447;-77
2022/10/30 10:32:39;;;;;;;0.10;0.10;;;;;;;24.24;81.39;96801.25;4943664;28;20664;-77
2022/10/30 10:35:52;;;;;;;0.10;0.10;;;;;;;25.19;73.51;96807.00;4955267;28;20701;-77
2022/10/30 10:38:44;;;;;;;0.20;0.20;;;;;;;26.88;62.97;96800.66;4955961;28;20565;-78
2022/10/30 10:41:49;;;;;;;0.15;0.15;;;;;;;26.85;65.34;96802.16;4956319;28;20060;-77
2022/10/30 10:44:57;;;;;;;0.10;0.10;;;;;;;27.45;55.64;96794.91;4962813;28;20093;-77
2022/10/30 10:47:52;;;;;;;0.10;0.10;;;;;;;28.37;52.15;96790.28;4938683;28;20078;-78
2022/10/30 10:50:49;;;;;;;0.10;0.10;;;;;;;29.27;46.03;96793.16;4956871;28;20109;-79
2022/10/30 10:53:44;;;;;;;0.10;0.10;;;;;;;28.46;45.87;96793.66;4954333;28;20570;-78
2022/10/30 10:56:36;;;;;;;0.20;0.17;;;;;;;29.24;45.62;96786.41;4957623;28;20078;-78
2022/10/30 10:59:24;;;;;;;0.10;0.10;;;;;;;29.06;45.12;96793.50;4952141;28;20130;-79
2022/10/30 11:02:44;;;;;;;0.10;0.10;;;;;;;30.07;41.69;96795.13;4955557;28;20050;-78
2022/10/30 11:05:49;;;;;;;0.10;0.10;;;;;;;30.26;45.60;96790.75;4958570;28;20042;-78
2022/10/30 11:08:36;;;;;;;0.10;0.10;;;;;;;29.75;38.88;96794.53;4956035;28;20057;-79
2022/10/30 11:11:22;;;;;;;0.20;0.20;;;;;;;28.62;41.75;96782.63;4955660;28;20047;-78
2022/10/30 11:14:17;;;;;;;0.10;0.10;;;;;;;27.99;42.16;96786.16;4955546;28;20078;-78
2022/10/30 11:17:23;;;;;;;0.10;0.10;;;;;;;27.91;42.69;96772.59;4956260;28;20038;-79
2022/10/30 11:20:19;;;;;;;0.10;0.10;;;;;;;27.16;45.42;96770.53;4954090;28;20125;-79
2022/10/30 11:23:30;;;;;;;0.10;0.10;;;;;;;27.28;43.02;96770.47;4955338;28;20039;-79
2022/10/30 11:26:16;;;;;;;0.10;0.10;;;;;;;28.28;42.73;96773.94;4954934;28;20054;-78
2022/10/30 11:29:13;;;;;;;0.10;0.10;;;;;;;29.51;37.51;96770.06;4954391;28;20043;-79
2022/10/30 11:32:02;;;;;;;0.10;0.10;;;;;;;28.82;39.21;96765.00;4953646;28;20686;-78
2022/10/30 11:35:06;;;;;;;0.10;0.10;;;;;;;28.92;36.83;96769.19;4956751;28;20042;-78
2022/10/30 11:38:12;;;;;;;0.10;0.10;;;;;;;29.34;37.42;96776.78;4956359;28;20047;-79
2022/10/30 11:41:01;;;;;;;0.10;0.10;;;;;;;30.44;34.81;96770.56;4961288;28;20247;-79
2022/10/30 11:43:48;;;;;;;0.10;0.10;;;;;;;31.55;34.34;96767.38;4964969;28;20047;-78
2022/10/30 11:46:35;;;;;;;0.10;0.10;;;;;;;31.91;32.15;96759.50;4963708;28;20071;-79
2022/10/30 11:49:30;;;;;;;0.10;0.10;;;;;;;32.15;32.87;96766.44;4960586;28;20038;-80
2022/10/30 11:52:19;;;;;;;0.10;0.10;;;;;;;31.63;32.63;96775.75;4965871;28;20039;-80
2022/10/30 11:55:33;;;;;;;0.10;0.10;;;;;;;33.35;30.84;96773.22;4963006;28;20137;-79
2022/10/30 11:58:29;;;;;;;0.10;0.10;;;;;;;32.71;30.28;96771.66;4962720;28;20039;-79
2022/10/30 12:01:22;;;;;;;0.10;0.10;;;;;;;32.93;30.85;96767.09;4957892;28;20053;-77
2022/10/30 12:04:22;;;;;;;0.13;0.10;;;;;;;33.38;29.70;96766.91;4959581;28;20053;-76
2022/10/30 12:07:31;;;;;;;0.20;0.20;;;;;;;32.23;31.12;96762.56;4961264;28;20050;-76
2022/10/30 12:10:28;;;;;;;0.13;0.13;;;;;;;31.94;31.94;96755.97;4961253;28;20149;-77
2022/10/30 12:13:17;;;;;;;0.10;0.10;;;;;;;30.66;32.93;96777.25;4960155;28;20051;-77
2022/10/30 12:16:15;;;;;;;0.05;0.05;;;;;;;28.65;36.67;96770.13;4961238;28;20043;-77
2022/10/30 12:19:08;;;;;;;0.00;0.00;;;;;;;28.23;37.86;96768.69;4958228;28;20047;-77
2022/10/30 12:22:00;;;;;;;0.00;0.00;;;;;;;27.75;40.47;96767.06;4956815;28;20046;-77
2022/10/30 12:24:46;;;;;;;0.00;0.00;;;;;;;27.15;43.41;96763.41;4960637;28;20039;-77
2022/10/30 12:27:37;;;;;;;0.10;0.10;;;;;;;27.03;42.81;96774.41;4957611;28;20466;-77
2022/10/30 12:30:23;;;;;;;0.00;0.00;;;;;;;27.04;44.08;96765.06;4957803;28;20074;-76
2022/10/30 12:33:19;;;;;;;0.03;0.03;;;;;;;26.26;47.27;96761.44;4958123;28;20045;-77
2022/10/30 12:36:12;;;;;;;0.00;0.00;;;;;;;25.72;49.82;96760.78;4959753;28;20277;-76
2022/10/30 12:39:11;;;;;;;0.10;0.10;;;;;;;25.53;55.96;96764.03;4957902;28;20073;-77
2022/10/30 12:42:03;;;;;;;0.03;0.03;;;;;;;26.04;53.58;96767.34;4957501;28;20132;-78
2022/10/30 12:44:54;;;;;;;0.10;0.10;;;;;;;26.22;51.33;96760.50;4960456;28;20403;-77
2022/10/30 12:47:45;;;;;;;0.20;0.20;;;;;;;25.84;55.79;96752.59;4961339;28;20073;-77
2022/10/30 12:51:11;;;;;;;0.08;0.08;;;;;;;25.59;54.73;96757.19;4954533;28;20061;-78
2022/10/30 12:54:22;;;;;;;0.10;0.10;;;;;;;26.32;52.28;96754.59;4947037;28;20058;-79
2022/10/30 12:57:14;;;;;;;0.10;0.10;;;;;;;27.41;47.03;96747.31;4956131;28;20046;-79
2022/10/30 13:00:12;;;;;;;0.10;0.10;;;;;;;27.10;47.48;96738.97;4958573;28;20046;-79
2022/10/30 13:03:18;;;;;;;0.10;0.10;;;;;;;27.62;46.94;96751.75;4957624;28;20090;-79
2022/10/30 13:06:12;;;;;;;0.10;0.10;;;;;;;28.30;45.88;96740.59;4961907;28;20924;-79
2022/10/30 13:09:15;;;;;;;0.10;0.08;;;;;;;27.52;45.69;96746.78;4956122;28;20345;-78
2022/10/30 13:12:03;;;;;;;0.00;0.00;;;;;;;26.71;50.65;96735.84;4961050;28;20056;-78
2022/10/30 13:15:01;;;;;;;0.00;0.00;;;;;;;25.85;58.40;96747.94;4958701;28;20411;-78
2022/10/30 13:17:48;;;;;;;0.00;0.00;;;;;;;26.44;57.30;96742.03;4957699;28;20042;-78
2022/10/30 13:20:34;;;;;;;0.10;0.10;;;;;;;26.87;52.00;96744.94;4945217;28;20047;-78
2022/10/30 13:23:30;;;;;;;0.10;0.10;;;;;;;25.91;57.18;96744.59;4959074;28;20047;-78
2022/10/30 13:26:18;;;;;;;0.00;0.00;;;;;;;25.58;56.77;96749.31;4948216;28;20034;-78